createdAt,value
2018-08-17T00:01:49.699Z,18.85
2018-08-17T00:04:16.748Z,18.79
2018-08-17T00:06:43.897Z,18.78
2018-08-17T00:09:12.252Z,18.81
2018-08-17T00:11:39.432Z,18.75
2018-08-17T00:14:07.234Z,18.92
2018-08-17T00:16:34.336Z,18.80
2018-08-17T00:19:02.151Z,18.83
2018-08-17T00:21:29.236Z,18.75
2018-08-17T00:23:56.675Z,18.73
2018-08-17T00:26:23.770Z,18.70
2018-08-17T00:28:51.097Z,18.69
2018-08-17T00:31:18.196Z,18.53
2018-08-17T00:33:45.228Z,18.59
2018-08-17T00:36:12.746Z,18.50
2018-08-17T00:38:39.743Z,18.51
2018-08-17T00:41:06.986Z,18.48
2018-08-17T00:43:34.444Z,18.36
2018-08-17T00:46:02.080Z,18.42
2018-08-17T00:48:29.147Z,18.36
2018-08-17T00:50:56.608Z,18.23
2018-08-17T00:53:23.913Z,18.27
2018-08-17T00:55:51.193Z,18.49
2018-08-17T00:58:18.252Z,18.49
2018-08-17T01:00:45.249Z,18.43
2018-08-17T01:03:12.240Z,18.24
2018-08-17T01:05:39.649Z,18.17
2018-08-17T01:08:07.304Z,18.20
2018-08-17T01:10:34.553Z,18.27
2018-08-17T01:13:01.785Z,18.21
2018-08-17T01:15:29.056Z,18.19
2018-08-17T01:17:56.255Z,18.08
2018-08-17T01:20:23.552Z,18.01
2018-08-17T01:22:50.985Z,18.01
2018-08-17T01:25:18.019Z,17.92
2018-08-17T01:27:45.020Z,18.02
2018-08-17T01:30:12.488Z,17.93
2018-08-17T01:32:39.548Z,17.92
2018-08-17T01:35:07.661Z,17.88
2018-08-17T01:37:34.938Z,17.84
2018-08-17T01:40:02.267Z,17.64
2018-08-17T01:42:29.357Z,17.49
2018-08-17T01:44:56.354Z,17.56
2018-08-17T01:47:23.444Z,17.80
2018-08-17T01:49:50.543Z,17.86
2018-08-17T01:52:19.132Z,17.86
2018-08-17T01:54:46.505Z,17.93
2018-08-17T01:57:13.539Z,17.98
2018-08-17T01:59:40.583Z,17.96
2018-08-17T02:02:07.883Z,17.99
2018-08-17T02:04:34.920Z,17.91
2018-08-17T02:07:02.230Z,17.79
2018-08-17T02:09:29.224Z,17.84
2018-08-17T02:11:56.304Z,17.85
2018-08-17T02:14:23.411Z,17.64
2018-08-17T02:16:50.670Z,17.78
2018-08-17T02:19:18.000Z,17.80
2018-08-17T02:21:45.438Z,17.83
2018-08-17T02:24:12.831Z,17.77
2018-08-17T02:26:40.104Z,17.77
2018-08-17T02:29:07.675Z,17.69
2018-08-17T02:31:34.857Z,17.66
2018-08-17T02:34:02.172Z,17.58
2018-08-17T02:36:29.188Z,17.48
2018-08-17T02:38:56.629Z,17.42
2018-08-17T02:41:23.713Z,17.50
2018-08-17T02:43:51.791Z,17.45
2018-08-17T02:46:19.469Z,17.34
2018-08-17T02:48:47.408Z,17.17
2018-08-17T02:51:14.405Z,17.15
2018-08-17T02:53:41.410Z,17.14
2018-08-17T02:56:08.418Z,17.01
2018-08-17T02:58:35.515Z,17.00
2018-08-17T03:01:02.568Z,17.09
2018-08-17T03:03:29.565Z,17.38
2018-08-17T03:05:56.578Z,17.23
2018-08-17T03:08:23.588Z,17.32
2018-08-17T03:10:50.556Z,17.18
2018-08-17T03:13:17.563Z,17.04
2018-08-17T03:15:44.612Z,16.88
2018-08-17T03:18:11.632Z,16.83
2018-08-17T03:20:38.664Z,17.00
2018-08-17T03:23:05.711Z,16.99
2018-08-17T03:25:32.762Z,17.16
2018-08-17T03:27:59.787Z,16.93
2018-08-17T03:30:26.941Z,16.93
2018-08-17T03:32:53.931Z,16.88
2018-08-17T03:35:20.920Z,16.76
2018-08-17T03:37:47.915Z,16.78
2018-08-17T03:40:14.929Z,16.67
2018-08-17T03:42:42.062Z,16.76
2018-08-17T03:45:09.111Z,16.82
2018-08-17T03:47:36.282Z,16.88
2018-08-17T03:50:03.563Z,16.90
2018-08-17T03:52:30.616Z,16.82
2018-08-17T03:54:57.644Z,16.74
2018-08-17T03:57:24.640Z,16.85
2018-08-17T03:59:51.627Z,16.91
2018-08-17T04:02:18.723Z,16.81
2018-08-17T04:04:45.743Z,16.72
2018-08-17T04:07:12.778Z,16.68
2018-08-17T04:09:39.873Z,16.71
2018-08-17T04:12:06.897Z,16.73
2018-08-17T04:14:33.946Z,16.77
2018-08-17T04:17:00.963Z,16.73
2018-08-17T04:19:27.993Z,16.73
2018-08-17T04:21:55.127Z,16.50
2018-08-17T04:24:22.239Z,16.52
2018-08-17T04:26:49.234Z,16.60
2018-08-17T04:29:16.243Z,16.54
2018-08-17T04:31:43.471Z,16.54
2018-08-17T04:34:10.489Z,16.44
2018-08-17T04:36:37.576Z,16.48
2018-08-17T04:39:08.825Z,16.33
2018-08-17T04:41:40.369Z,16.41
2018-08-17T04:44:12.235Z,16.36
2018-08-17T04:46:39.216Z,16.31
2018-08-17T04:49:06.238Z,16.26
2018-08-17T04:51:33.237Z,16.46
2018-08-17T04:54:00.236Z,16.58
2018-08-17T04:56:27.227Z,16.59
2018-08-17T05:03:27.181Z,16.82
2018-08-17T05:05:54.326Z,16.84
2018-08-17T05:08:21.376Z,16.76
2018-08-17T05:10:48.384Z,16.74
2018-08-17T05:13:15.456Z,16.55
2018-08-17T05:15:42.871Z,16.62
2018-08-17T05:18:09.847Z,16.65
2018-08-17T05:20:36.933Z,16.81
2018-08-17T05:23:10.865Z,17.15
2018-08-17T05:25:38.167Z,17.22
2018-08-17T05:28:05.265Z,17.32
2018-08-17T05:30:32.599Z,17.31
2018-08-17T05:32:59.688Z,17.18
2018-08-17T05:35:26.707Z,16.95
2018-08-17T05:37:53.679Z,17.16
2018-08-17T05:40:20.735Z,17.07
2018-08-17T05:42:47.809Z,16.98
2018-08-17T05:45:14.796Z,17.05
2018-08-17T05:47:42.011Z,17.10
2018-08-17T05:50:09.413Z,17.08
2018-08-17T05:52:36.588Z,17.48
2018-08-17T05:55:04.112Z,17.45
2018-08-17T05:57:31.235Z,17.58
2018-08-17T05:59:58.241Z,17.58
2018-08-17T06:02:25.233Z,17.71
2018-08-17T06:04:52.535Z,17.83
2018-08-17T06:07:19.856Z,17.87
2018-08-17T06:09:46.858Z,18.03
2018-08-17T06:12:13.927Z,18.19
2018-08-17T06:14:40.996Z,18.24
2018-08-17T06:17:07.999Z,18.13
2018-08-17T06:19:35.419Z,18.03
2018-08-17T06:22:02.838Z,18.09
2018-08-17T06:24:29.837Z,17.99
2018-08-17T06:26:56.883Z,18.13
2018-08-17T06:29:23.892Z,18.19
2018-08-17T06:31:51.137Z,18.16
2018-08-17T06:34:18.199Z,18.33
2018-08-17T06:36:45.176Z,18.37
2018-08-17T06:39:12.243Z,18.39
2018-08-17T06:41:39.615Z,18.40
2018-08-17T06:44:06.697Z,18.49
2018-08-17T06:46:33.894Z,18.65
2018-08-17T06:49:01.023Z,18.72
2018-08-17T06:51:28.191Z,18.75
2018-08-17T06:53:55.462Z,18.81
2018-08-17T06:56:22.624Z,18.98
2018-08-17T06:58:49.751Z,19.05
2018-08-17T07:01:16.737Z,19.13
2018-08-17T07:03:43.852Z,19.21
2018-08-17T07:06:10.869Z,19.37
2018-08-17T07:08:37.870Z,19.31
2018-08-17T07:11:04.983Z,19.32
2018-08-17T07:13:32.080Z,19.30
2018-08-17T07:15:59.152Z,19.55
2018-08-17T07:18:26.223Z,19.56
2018-08-17T07:20:53.267Z,19.53
2018-08-17T07:23:20.340Z,19.55
2018-08-17T07:25:47.415Z,19.80
2018-08-17T07:28:14.592Z,19.67
2018-08-17T07:30:41.572Z,19.65
2018-08-17T07:33:08.639Z,19.64
2018-08-17T07:35:35.669Z,19.67
2018-08-17T07:38:02.831Z,19.70
2018-08-17T07:40:29.907Z,19.73
2018-08-17T07:42:57.084Z,19.75
2018-08-17T07:45:24.209Z,19.68
2018-08-17T07:47:51.250Z,19.66
2018-08-17T07:50:19.708Z,19.69
2018-08-17T07:52:46.726Z,19.66
2018-08-17T07:55:14.016Z,19.89
2018-08-17T07:57:40.993Z,19.73
2018-08-17T08:00:07.998Z,19.65
2018-08-17T08:02:35.844Z,19.80
2018-08-17T08:05:03.195Z,19.75
2018-08-17T08:07:30.212Z,19.83
2018-08-17T08:09:57.261Z,19.94
2018-08-17T08:12:24.279Z,20.02
2018-08-17T08:14:51.345Z,20.14
2018-08-17T08:17:18.328Z,20.20
2018-08-17T08:19:55.744Z,20.24
2018-08-17T08:22:22.747Z,20.41
2018-08-17T08:24:49.737Z,20.40
2018-08-17T08:27:16.732Z,20.35
2018-08-17T08:29:43.792Z,20.33
2018-08-17T08:32:10.815Z,20.53
2018-08-17T08:34:37.821Z,20.54
2018-08-17T08:37:06.408Z,20.55
2018-08-17T08:39:33.834Z,20.69
2018-08-17T08:42:03.943Z,20.78
2018-08-17T08:44:31.041Z,20.77
2018-08-17T08:46:58.576Z,20.76
2018-08-17T08:49:25.983Z,20.85
2018-08-17T08:51:53.094Z,20.87
2018-08-17T08:54:21.497Z,20.97
2018-08-17T08:56:49.122Z,21.08
2018-08-17T08:59:17.433Z,21.17
2018-08-17T09:01:46.155Z,21.26
2018-08-17T09:04:14.140Z,21.25
2018-08-17T09:06:44.070Z,21.32
2018-08-17T09:09:11.991Z,21.27
2018-08-17T09:11:40.135Z,21.14
2018-08-17T09:14:09.053Z,21.28
2018-08-17T09:16:36.236Z,21.23
2018-08-17T09:19:03.540Z,21.19
2018-08-17T09:21:30.546Z,21.17
2018-08-17T09:23:57.549Z,21.17
2018-08-17T09:26:24.617Z,21.08
2018-08-17T09:28:58.488Z,21.05
2018-08-17T09:31:25.587Z,20.94
2018-08-17T09:33:52.806Z,20.83
2018-08-17T09:36:20.273Z,20.88
2018-08-17T09:38:47.480Z,20.80
2018-08-17T09:41:14.478Z,20.85
2018-08-17T09:43:41.482Z,20.78
2018-08-17T09:46:09.644Z,20.80
2018-08-17T09:48:36.681Z,20.75
2018-08-17T09:51:04.239Z,20.59
2018-08-17T09:53:31.256Z,20.46
2018-08-17T09:55:58.282Z,20.46
2018-08-17T09:58:25.279Z,20.36
2018-08-17T10:00:58.155Z,20.23
2018-08-17T10:03:31.033Z,20.09
2018-08-17T10:06:04.040Z,20.10
2018-08-17T10:08:32.739Z,19.87
2018-08-17T10:10:59.958Z,19.75
2018-08-17T10:13:27.029Z,19.63
2018-08-17T10:15:54.044Z,19.59
2018-08-17T10:18:23.359Z,19.43
2018-08-17T10:20:50.696Z,19.43
2018-08-17T10:23:23.513Z,19.49
2018-08-17T10:25:50.600Z,19.49
2018-08-17T10:28:17.827Z,19.45
2018-08-17T10:30:44.904Z,19.36
2018-08-17T10:33:11.972Z,19.32
2018-08-17T10:35:38.973Z,19.48
2018-08-17T10:38:06.889Z,19.41
2018-08-17T10:40:33.960Z,19.34
2018-08-17T10:43:02.219Z,19.29
2018-08-17T10:45:29.461Z,19.16
2018-08-17T10:47:56.908Z,19.25
2018-08-17T10:50:25.409Z,19.21
2018-08-17T10:52:53.592Z,19.15
2018-08-17T10:55:21.750Z,19.08
2018-08-17T10:57:48.767Z,19.05
2018-08-17T11:00:17.950Z,19.10
2018-08-17T11:02:45.261Z,19.13
2018-08-17T11:05:13.637Z,19.20
2018-08-17T11:07:40.723Z,19.08
2018-08-17T11:10:09.379Z,18.91
2018-08-17T11:12:37.416Z,18.85
2018-08-17T11:15:04.885Z,18.81
2018-08-17T11:17:31.913Z,18.72
2018-08-17T11:19:58.904Z,18.62
2018-08-17T11:22:25.992Z,18.39
2018-08-17T11:24:52.987Z,18.32
2018-08-17T11:27:19.980Z,18.11
2018-08-17T11:29:46.985Z,17.93
2018-08-17T11:32:14.181Z,17.91
2018-08-17T11:34:41.183Z,17.87
2018-08-17T11:37:08.192Z,17.81
2018-08-17T11:39:35.524Z,17.81
2018-08-17T11:42:02.556Z,18.05
2018-08-17T11:44:29.565Z,18.18
2018-08-17T11:46:59.290Z,18.03
2018-08-17T11:49:26.604Z,18.04
2018-08-17T11:51:53.596Z,18.02
2018-08-17T11:54:20.691Z,17.95
2018-08-17T11:56:47.682Z,17.97
2018-08-17T11:59:14.663Z,17.98
2018-08-17T12:01:41.664Z,17.95
2018-08-17T12:04:08.740Z,18.03
2018-08-17T12:06:35.737Z,18.05
2018-08-17T12:09:02.856Z,18.10
2018-08-17T12:11:29.855Z,18.25
2018-08-17T12:13:57.187Z,18.38
2018-08-17T12:16:24.200Z,18.52
2018-08-17T12:18:51.512Z,18.72
2018-08-17T12:21:18.497Z,18.81
2018-08-17T12:23:45.582Z,18.78
2018-08-17T12:26:12.624Z,18.80
2018-08-17T12:28:39.593Z,18.85
2018-08-17T12:31:06.592Z,18.70
2018-08-17T12:33:33.656Z,18.66
2018-08-17T12:36:00.631Z,18.79
2018-08-17T12:38:28.063Z,19.08
2018-08-17T12:40:56.242Z,19.41
2018-08-17T12:43:38.587Z,19.35
2018-08-17T12:46:05.690Z,19.55
2018-08-17T12:48:32.709Z,19.80
2018-08-17T12:51:03.487Z,20.04
2018-08-17T12:53:30.796Z,20.10
2018-08-17T12:55:57.795Z,20.24
2018-08-17T12:58:24.788Z,20.36
2018-08-17T13:00:51.782Z,20.79
2018-08-17T13:03:18.918Z,20.81
2018-08-17T13:05:45.981Z,20.82
2018-08-17T13:08:13.072Z,20.74
2018-08-17T13:10:40.057Z,20.59
2018-08-17T13:13:08.412Z,20.82
2018-08-17T13:15:36.087Z,20.61
2018-08-17T13:18:11.634Z,20.50
2018-08-17T13:20:38.773Z,20.43
2018-08-17T13:23:05.790Z,20.31
2018-08-17T13:25:32.937Z,20.33
2018-08-17T13:28:00.246Z,20.52
2018-08-17T13:30:27.389Z,20.62
2018-08-17T13:32:54.426Z,20.49
2018-08-17T13:35:21.435Z,20.17
2018-08-17T13:37:48.507Z,20.25
2018-08-17T13:40:15.517Z,20.17
2018-08-17T13:42:42.512Z,20.19
2018-08-17T13:45:09.886Z,20.10
2018-08-17T13:47:36.968Z,20.07
2018-08-17T13:50:04.584Z,20.22
2018-08-17T13:52:31.609Z,20.12
2018-08-17T13:54:58.778Z,20.19
2018-08-17T13:57:26.058Z,20.07
2018-08-17T13:59:53.134Z,20.23
2018-08-17T14:02:20.142Z,20.15
2018-08-17T14:04:47.155Z,20.25
2018-08-17T14:07:14.139Z,20.16
2018-08-17T14:09:41.171Z,19.83
2018-08-17T14:12:08.604Z,19.97
2018-08-17T14:14:35.636Z,20.03
2018-08-17T14:17:02.739Z,19.98
2018-08-17T14:19:29.727Z,20.10
2018-08-17T14:21:56.796Z,20.17
2018-08-17T14:24:24.080Z,20.19
2018-08-17T14:26:51.076Z,20.12
2018-08-17T14:29:18.071Z,20.05
2018-08-17T14:31:45.175Z,19.87
2018-08-17T14:34:12.187Z,19.80
2018-08-17T14:36:39.212Z,19.74
2018-08-17T14:39:06.376Z,19.79
2018-08-17T14:42:07.408Z,19.81
2018-08-17T14:44:34.478Z,19.77
2018-08-17T14:47:01.525Z,20.01
2018-08-17T14:49:28.836Z,19.91
2018-08-17T14:51:56.117Z,19.79
2018-08-17T14:54:23.057Z,19.77
2018-08-17T14:56:50.041Z,19.75
2018-08-17T14:59:17.640Z,19.84
2018-08-17T15:01:44.876Z,19.87
2018-08-17T15:04:11.871Z,19.81
2018-08-17T15:06:38.903Z,19.83
2018-08-17T15:09:11.357Z,19.74
2018-08-17T15:11:39.344Z,19.74
2018-08-17T15:14:06.403Z,19.59
2018-08-17T15:16:33.633Z,19.69
2018-08-17T15:19:00.659Z,19.81
2018-08-17T15:21:27.647Z,19.87
2018-08-17T15:23:54.619Z,19.98
2018-08-17T15:26:22.504Z,20.05
2018-08-17T15:28:49.560Z,20.06
2018-08-17T15:31:16.669Z,20.13
2018-08-17T15:33:43.915Z,20.05
2018-08-17T15:36:11.477Z,20.06
2018-08-17T15:38:38.484Z,20.05
2018-08-17T15:41:05.525Z,20.00
2018-08-17T15:43:32.591Z,20.01
2018-08-17T15:45:59.615Z,20.06
2018-08-17T15:48:26.620Z,20.01
2018-08-17T15:50:53.609Z,20.00
2018-08-17T15:53:20.623Z,19.83
2018-08-17T15:55:47.772Z,19.81
2018-08-17T15:58:14.800Z,19.80
2018-08-17T16:00:41.820Z,19.75
2018-08-17T16:03:08.904Z,19.81
2018-08-17T16:05:35.912Z,19.80
2018-08-17T16:08:02.968Z,19.83
2018-08-17T16:10:30.261Z,19.79
2018-08-17T16:12:57.140Z,19.81
2018-08-17T16:15:24.144Z,19.83
2018-08-17T16:17:51.159Z,19.87
2018-08-17T16:20:18.182Z,19.91
2018-08-17T16:22:45.183Z,19.82
2018-08-17T16:25:12.692Z,19.84
2018-08-17T16:27:40.457Z,19.87
2018-08-17T16:30:09.357Z,20.03
2018-08-17T16:32:36.355Z,20.05
2018-08-17T16:35:03.660Z,20.02
2018-08-17T16:37:31.100Z,20.02
2018-08-17T16:39:58.056Z,20.01
2018-08-17T16:42:30.690Z,20.27
2018-08-17T16:44:57.738Z,20.25
2018-08-17T16:47:25.025Z,20.38
2018-08-17T16:49:52.357Z,20.37
2018-08-17T16:52:19.511Z,20.52
2018-08-17T16:54:46.508Z,20.59
2018-08-17T16:57:13.484Z,20.61
2018-08-17T16:59:40.598Z,20.68
2018-08-17T17:02:07.585Z,20.76
2018-08-17T17:04:39.248Z,20.73
2018-08-17T17:07:06.527Z,20.73
2018-08-17T17:09:33.554Z,20.67
2018-08-17T17:12:00.635Z,20.66
2018-08-17T17:14:27.967Z,20.51
2018-08-17T17:16:55.053Z,20.37
2018-08-17T17:19:22.099Z,20.33
2018-08-17T17:21:50.850Z,20.31
2018-08-17T17:24:18.446Z,20.30
2018-08-17T17:26:45.539Z,20.21
2018-08-17T17:29:12.632Z,20.13
2018-08-17T17:31:40.160Z,20.20
2018-08-17T17:34:07.431Z,20.16
2018-08-17T17:36:34.496Z,20.11
2018-08-17T17:39:01.483Z,20.07
2018-08-17T17:41:28.476Z,19.97
2018-08-17T17:43:55.808Z,19.94
2018-08-17T17:46:22.918Z,19.87
2018-08-17T17:48:50.351Z,19.88
2018-08-17T17:51:17.350Z,19.80
2018-08-17T17:53:44.350Z,19.77
2018-08-17T17:56:11.480Z,19.73
2018-08-17T17:58:38.464Z,19.68
2018-08-17T18:01:06.571Z,19.57
2018-08-17T18:03:33.599Z,19.53
2018-08-17T18:06:02.931Z,19.40
2018-08-17T18:08:30.447Z,19.33
2018-08-17T18:10:57.544Z,19.16
2018-08-17T18:13:24.999Z,19.19
2018-08-17T18:15:52.120Z,19.14
2018-08-17T18:18:19.134Z,19.09
2018-08-17T18:20:46.203Z,19.03
2018-08-17T18:23:13.226Z,19.06
2018-08-17T18:25:40.488Z,18.82
2018-08-17T18:28:07.875Z,18.73
2018-08-17T18:30:35.025Z,18.70
2018-08-17T18:33:02.039Z,18.54
2018-08-17T18:35:29.192Z,18.59
2018-08-17T18:37:56.306Z,18.51
2018-08-17T18:40:23.354Z,18.49
2018-08-17T18:42:50.367Z,18.42
2018-08-17T18:45:17.363Z,18.37
2018-08-17T18:47:44.373Z,18.39
2018-08-17T18:50:11.372Z,18.31
2018-08-17T18:52:38.417Z,18.22
2018-08-17T18:55:05.458Z,18.16
2018-08-17T18:57:32.540Z,18.13
2018-08-17T19:00:00.328Z,17.98
2018-08-17T19:02:27.424Z,17.93
2018-08-17T19:04:54.420Z,17.86
2018-08-17T19:07:22.075Z,17.80
2018-08-17T19:09:49.339Z,17.88
2018-08-17T19:12:16.324Z,17.71
2018-08-17T19:14:46.970Z,17.65
2018-08-17T19:17:19.885Z,17.49
2018-08-17T19:19:47.136Z,17.46
2018-08-17T19:22:14.361Z,17.52
2018-08-17T19:24:41.447Z,17.42
2018-08-17T19:27:08.696Z,17.43
2018-08-17T19:29:36.127Z,17.27
2018-08-17T19:32:03.581Z,17.25
2018-08-17T19:34:31.150Z,17.13
2018-08-17T19:37:00.214Z,16.87
2018-08-17T19:39:32.873Z,16.81
2018-08-17T19:41:59.968Z,17.00
2018-08-17T19:44:27.355Z,16.97
2018-08-17T19:46:54.566Z,17.09
2018-08-17T19:49:21.547Z,17.18
2018-08-17T19:51:48.633Z,16.97
2018-08-17T19:54:15.647Z,16.97
2018-08-17T19:56:42.683Z,16.96
2018-08-17T19:59:09.715Z,16.86
2018-08-17T20:01:36.898Z,16.96
2018-08-17T20:04:04.193Z,16.87
2018-08-17T20:06:31.184Z,16.63
2018-08-17T20:08:58.216Z,16.58
2018-08-17T20:11:25.321Z,16.48
2018-08-17T20:13:52.352Z,16.50
2018-08-17T20:16:24.831Z,16.49
2018-08-17T20:18:52.187Z,16.61
2018-08-17T20:21:22.187Z,16.58
2018-08-17T20:23:49.557Z,16.74
2018-08-17T20:26:16.780Z,16.66
2018-08-17T20:28:43.795Z,16.38
2018-08-17T20:31:11.095Z,16.34
2018-08-17T20:33:38.311Z,16.30
2018-08-17T20:36:05.364Z,16.22
2018-08-17T20:38:32.543Z,16.19
2018-08-17T20:41:00.580Z,16.03
2018-08-17T20:43:27.789Z,16.16
2018-08-17T20:45:54.842Z,16.04
2018-08-17T20:48:22.146Z,16.21
2018-08-17T20:50:49.463Z,16.15
2018-08-17T20:53:18.828Z,15.97
2018-08-17T20:55:46.533Z,16.08
2018-08-17T20:58:13.805Z,15.98
2018-08-17T21:00:41.394Z,15.78
2018-08-17T21:03:08.490Z,15.79
2018-08-17T21:05:35.826Z,15.79
2018-08-17T21:08:03.222Z,15.71
2018-08-17T21:10:30.335Z,15.71
2018-08-17T21:12:57.647Z,15.63
2018-08-17T21:15:25.152Z,15.68
2018-08-17T21:17:52.420Z,15.86
2018-08-17T21:20:19.862Z,15.76
2018-08-17T21:22:47.215Z,15.84
2018-08-17T21:25:15.091Z,15.81
2018-08-17T21:27:42.342Z,15.74
2018-08-17T21:30:10.052Z,15.71
2018-08-17T21:32:37.442Z,15.48
2018-08-17T21:35:05.556Z,15.41
2018-08-17T21:37:32.868Z,15.52
2018-08-17T21:40:00.065Z,15.46
2018-08-17T21:42:27.423Z,15.45
2018-08-17T21:44:54.841Z,15.46
2018-08-17T21:47:22.042Z,15.49
2018-08-17T21:49:49.279Z,15.61
2018-08-17T21:52:22.621Z,15.54
2018-08-17T21:54:49.705Z,15.62
2018-08-17T21:57:17.300Z,15.61
2018-08-17T21:59:50.767Z,15.68
2018-08-17T22:02:18.778Z,15.52
2018-08-17T22:04:45.960Z,15.49
2018-08-17T22:07:18.222Z,15.54
2018-08-17T22:09:45.504Z,15.61
2018-08-17T22:12:13.284Z,15.43
2018-08-17T22:14:40.643Z,15.29
2018-08-17T22:17:18.107Z,15.36
2018-08-17T22:19:46.240Z,15.19
2018-08-17T22:22:14.538Z,15.28
2018-08-17T22:24:50.962Z,15.05
2018-08-17T22:27:18.978Z,14.99
2018-08-17T22:29:48.032Z,14.99
2018-08-17T22:32:15.034Z,15.07
2018-08-17T22:34:42.543Z,14.85
2018-08-17T22:37:09.580Z,14.90
2018-08-17T22:39:37.221Z,14.95
2018-08-17T22:42:04.500Z,15.10
2018-08-17T22:44:32.017Z,15.13
2018-08-17T22:47:28.443Z,15.13
2018-08-17T22:49:56.307Z,14.86
2018-08-17T22:52:23.708Z,14.78
2018-08-17T22:54:54.625Z,14.87
2018-08-17T22:57:21.647Z,14.93
2018-08-17T23:00:06.160Z,14.93
2018-08-17T23:02:33.153Z,14.93
2018-08-17T23:05:00.220Z,14.89
2018-08-17T23:07:27.298Z,14.83
2018-08-17T23:09:54.344Z,14.71
2018-08-17T23:12:21.360Z,14.79
2018-08-17T23:14:48.525Z,14.70
2018-08-17T23:17:15.523Z,14.64
2018-08-17T23:19:42.546Z,14.65
2018-08-17T23:22:09.556Z,14.79
2018-08-17T23:24:36.568Z,14.68
2018-08-17T23:27:03.599Z,14.46
2018-08-17T23:29:30.568Z,14.32
2018-08-17T23:31:57.626Z,14.48
2018-08-17T23:34:24.631Z,14.56
2018-08-17T23:36:51.600Z,14.59
2018-08-17T23:39:18.629Z,14.59
2018-08-17T23:41:45.622Z,14.57
2018-08-17T23:44:12.618Z,14.39
2018-08-17T23:46:39.663Z,14.37
2018-08-17T23:49:06.684Z,14.30
2018-08-17T23:51:33.781Z,14.48
2018-08-17T23:54:00.759Z,14.50
2018-08-17T23:56:27.771Z,14.19
2018-08-17T23:58:54.767Z,14.33
